Time;durP1;ratioP1;P1;durP2;ratioP2;P2;SDS_P1;SDS_P2;PMS_P1;PMS_P2;Temp;Humidity;BMP_temperature;BMP_pressure;BME280_temperature;BME280_humidity;BME280_pressure;Samples;Min_cycle;Max_cycle;Signal;HPM_P1;HPM_P2
2022/09/23 00:00:14;;;;;;;4.07;3.10;;;;;;;9.51;71.33;100572.31;5135163;27;20415;-61
2022/09/23 00:02:46;;;;;;;5.88;3.35;;;;;;;9.48;70.23;100572.91;5141379;27;20051;-61
2022/09/23 00:05:37;;;;;;;4.18;3.33;;;;;;;9.44;71.21;100576.63;5155014;27;20050;-61
2022/09/23 00:11:31;;;;;;;5.45;3.35;;;;;;;9.40;71.38;100576.38;4991729;28;20073;-60
2022/09/23 00:18:21;;;;;;;3.83;3.33;;;;;;;9.32;71.54;100566.81;5031605;28;20149;-61
2022/09/23 00:20:54;;;;;;;4.95;3.72;;;;;;;9.34;71.38;100563.72;4934237;28;20058;-61
2022/09/23 00:26:14;;;;;;;6.20;4.07;;;;;;;9.33;71.11;100554.53;5090634;27;20063;-59
2022/09/23 00:28:59;;;;;;;6.32;3.90;;;;;;;9.33;72.47;100556.50;5154635;27;20066;-61
2022/09/23 00:35:04;;;;;;;4.05;3.22;;;;;;;9.39;71.65;100551.69;5114059;27;20062;-61
2022/09/23 00:38:27;;;;;;;6.15;3.67;;;;;;;9.34;72.42;100542.31;5153319;27;20057;-61
2022/09/23 00:41:11;;;;;;;4.55;3.53;;;;;;;9.35;71.51;100548.69;5154822;27;20054;-61
2022/09/23 00:44:00;;;;;;;4.93;3.30;;;;;;;9.37;70.79;100548.41;5151019;27;20058;-60
2022/09/23 00:47:26;;;;;;;;;;;;;;;;;;;;;
2022/09/23 00:50:34;;;;;;;5.72;3.72;;;;;;;9.34;71.65;100552.59;5139026;27;20063;-61
2022/09/23 00:53:20;;;;;;;4.32;3.10;;;;;;;9.36;71.61;100542.00;5124874;27;20063;-59
2022/09/23 00:55:53;;;;;;;4.40;3.13;;;;;;;9.34;71.51;100545.09;5140870;27;20050;-60
2022/09/23 01:01:21;;;;;;;5.30;3.00;;;;;;;9.32;71.58;100535.38;5126851;27;20047;-61
2022/09/23 01:13:28;;;;;;;4.97;3.22;;;;;;;9.27;70.37;100525.19;5076685;28;20546;-60
2022/09/23 01:16:29;;;;;;;4.85;2.75;;;;;;;9.30;70.93;100521.81;5096851;28;20508;-60
2022/09/23 01:19:10;;;;;;;4.68;2.92;;;;;;;9.32;71.16;100524.25;5096801;28;20084;-61
2022/09/23 01:21:51;;;;;;;5.28;3.10;;;;;;;9.35;71.40;100520.91;5117580;27;20059;-60
2022/09/23 01:25:00;;;;;;;3.95;2.78;;;;;;;9.35;70.20;100520.91;5138597;27;20043;-60
2022/09/23 01:28:05;;;;;;;3.50;2.80;;;;;;;9.32;71.06;100513.16;5076601;28;20052;-60
2022/09/23 01:31:19;;;;;;;3.95;2.67;;;;;;;9.33;71.84;100509.25;5074885;28;20060;-60
2022/09/23 01:40:24;;;;;;;5.45;2.88;;;;;;;9.35;71.51;100512.56;5039144;28;20055;-61
2022/09/23 01:43:30;;;;;;;6.38;2.85;;;;;;;9.39;71.27;100510.00;5043477;28;20526;-62
2022/09/23 01:46:59;;;;;;;;;;;;;;;;;;;;;
2022/09/23 01:52:33;;;;;;;3.95;3.22;;;;;;;9.38;70.70;100511.13;5016230;28;20060;-61
2022/09/23 01:55:18;;;;;;;5.00;3.10;;;;;;;9.40;71.84;100504.09;5029275;28;20494;-61
2022/09/23 01:58:13;;;;;;;4.32;3.03;;;;;;;9.38;71.14;100502.78;5033335;28;20061;-60
2022/09/23 02:03:42;;;;;;;4.65;2.70;;;;;;;9.40;71.92;100504.09;4994553;28;20439;-61
2022/09/23 02:06:34;;;;;;;4.72;2.80;;;;;;;9.45;70.42;100505.97;5012616;28;20526;-60
2022/09/23 02:09:14;;;;;;;6.53;3.03;;;;;;;9.43;70.62;100508.22;5045879;28;20060;-62
2022/09/23 02:11:59;;;;;;;3.25;2.70;;;;;;;9.38;70.33;100500.81;5114150;28;20512;-61
2022/09/23 02:14:49;;;;;;;4.82;2.70;;;;;;;9.40;70.43;100500.50;5115041;28;20083;-62
2022/09/23 02:17:31;;;;;;;3.35;2.58;;;;;;;9.41;71.46;100496.59;5110803;27;20059;-61
2022/09/23 02:20:07;;;;;;;5.13;2.97;;;;;;;9.42;71.49;100490.72;5122207;27;20054;-61
2022/09/23 02:32:18;;;;;;;4.22;3.10;;;;;;;9.35;70.55;100480.00;5141368;27;20051;-62
2022/09/23 02:45:03;;;;;;;3.42;2.75;;;;;;;9.29;71.58;100478.47;4936442;29;20417;-61
2022/09/23 02:47:55;;;;;;;5.05;2.85;;;;;;;9.28;70.78;100474.03;4932875;29;20056;-61
2022/09/23 02:51:02;;;;;;;4.32;2.90;;;;;;;9.29;70.64;100472.91;5105804;28;20059;-61
2022/09/23 02:53:33;;;;;;;4.22;2.78;;;;;;;9.31;70.59;100473.41;5109651;28;20159;-60
2022/09/23 02:58:52;;;;;;;5.80;3.42;;;;;;;9.31;71.94;100467.03;5132856;27;20047;-61
2022/09/23 03:01:44;;;;;;;4.65;3.40;;;;;;;9.31;70.85;100462.28;5134173;27;20051;-62
2022/09/23 03:08:41;;;;;;;5.03;3.47;;;;;;;9.28;71.52;100457.38;5121954;27;20397;-61
2022/09/23 03:11:18;;;;;;;4.63;3.03;;;;;;;9.28;71.80;100446.25;5132403;27;20057;-60
2022/09/23 03:14:16;;;;;;;3.63;2.88;;;;;;;9.29;71.39;100452.63;5134942;27;20483;-63
2022/09/23 03:16:56;;;;;;;3.75;2.83;;;;;;;9.29;71.11;100447.88;5134623;27;20065;-61
2022/09/23 03:23:32;;;;;;;4.65;3.22;;;;;;;9.25;71.11;100444.06;5071917;28;20414;-62
2022/09/23 03:26:46;;;;;;;6.63;4.00;;;;;;;9.26;71.81;100440.16;5006335;28;20053;-61
2022/09/23 03:29:52;;;;;;;5.97;3.13;;;;;;;9.13;72.24;100421.50;5062119;27;20055;-62
2022/09/23 03:32:26;;;;;;;6.45;3.38;;;;;;;9.19;72.17;100427.78;5138033;27;20062;-61
2022/09/23 03:34:56;;;;;;;6.50;3.75;;;;;;;9.18;71.56;100432.53;5155194;27;20055;-61
2022/09/23 03:37:30;;;;;;;5.30;3.60;;;;;;;9.15;71.49;100427.56;5154938;27;20062;-62
2022/09/23 03:40:03;;;;;;;4.78;3.00;;;;;;;9.14;72.24;100428.72;5154845;27;20054;-61
2022/09/23 03:42:33;;;;;;;3.65;2.45;;;;;;;9.13;71.09;100435.38;5135307;27;20051;-60
2022/09/23 03:45:04;;;;;;;5.57;3.30;;;;;;;9.11;71.35;100429.31;5133977;27;20066;-61
2022/09/23 03:47:33;;;;;;;5.10;3.10;;;;;;;9.09;71.96;100432.41;5134099;27;20439;-61
2022/09/23 03:50:01;;;;;;;4.32;2.70;;;;;;;9.08;72.29;100425.19;5133523;27;20055;-61
2022/09/23 03:52:28;;;;;;;4.15;3.00;;;;;;;9.11;71.50;100423.75;5133981;27;20051;-59
2022/09/23 03:54:55;;;;;;;3.65;2.47;;;;;;;9.11;70.82;100426.53;5133859;27;20062;-61
2022/09/23 03:57:23;;;;;;;3.30;2.63;;;;;;;9.13;70.67;100427.06;5133568;27;20495;-60
2022/09/23 03:59:51;;;;;;;4.00;2.50;;;;;;;9.10;70.56;100417.38;5153459;27;20050;-61
2022/09/23 04:02:19;;;;;;;3.80;2.90;;;;;;;9.10;71.57;100417.38;5154325;27;20047;-61
2022/09/23 04:04:48;;;;;;;5.18;3.03;;;;;;;9.10;71.10;100417.38;5153981;27;20047;-61
2022/09/23 04:07:16;;;;;;;4.93;3.08;;;;;;;9.08;70.35;100413.28;5154453;27;20483;-61
2022/09/23 04:09:43;;;;;;;3.28;2.70;;;;;;;9.09;71.10;100412.97;5144959;27;20051;-61
2022/09/23 04:12:13;;;;;;;4.13;2.88;;;;;;;9.05;70.91;100411.09;5133854;27;20051;-61
2022/09/23 04:14:41;;;;;;;4.88;2.90;;;;;;;9.03;70.37;100416.97;5133722;27;20074;-61
2022/09/23 04:17:08;;;;;;;4.28;2.70;;;;;;;9.01;71.21;100407.28;5133728;27;20058;-61
2022/09/23 04:19:36;;;;;;;4.28;3.10;;;;;;;9.02;70.51;100406.16;5133301;27;20059;-61
2022/09/23 04:22:05;;;;;;;4.50;3.22;;;;;;;9.00;71.14;100411.19;5133451;27;20062;-61
2022/09/23 04:24:32;;;;;;;4.47;2.97;;;;;;;8.96;71.39;100416.53;5133635;27;20058;-60
2022/09/23 04:27:00;;;;;;;3.67;2.92;;;;;;;8.93;70.40;100417.97;5133192;27;20067;-61
2022/09/23 04:29:27;;;;;;;3.67;2.90;;;;;;;8.91;71.88;100409.13;5133355;27;20066;-61
2022/09/23 04:31:54;;;;;;;3.47;2.60;;;;;;;8.90;71.78;100407.47;5133135;27;20051;-61
2022/09/23 04:34:22;;;;;;;3.63;2.85;;;;;;;8.86;72.25;100406.44;5133800;27;20062;-60
2022/09/23 04:36:50;;;;;;;6.38;2.95;;;;;;;8.86;72.00;100411.16;5133706;27;20055;-61
2022/09/23 04:39:18;;;;;;;5.50;2.97;;;;;;;8.83;72.33;100401.47;5133042;27;20054;-60
2022/09/23 04:41:46;;;;;;;3.13;2.80;;;;;;;8.80;71.99;100401.25;5132800;27;20514;-60
2022/09/23 04:44:14;;;;;;;6.70;3.10;;;;;;;8.74;72.43;100397.75;5133476;28;20051;-60
2022/09/23 04:46:42;;;;;;;5.85;3.22;;;;;;;8.73;72.18;100401.66;5133337;27;20051;-60
2022/09/23 04:49:10;;;;;;;4.63;3.22;;;;;;;8.75;71.31;100393.84;5133242;28;20055;-60
2022/09/23 04:51:39;;;;;;;3.63;2.72;;;;;;;8.73;71.63;100393.31;5133223;28;20055;-61
2022/09/23 04:54:06;;;;;;;4.35;3.08;;;;;;;8.71;71.98;100382.53;5133033;28;20055;-61
2022/09/23 04:56:34;;;;;;;6.45;3.20;;;;;;;8.72;72.21;100380.56;5132564;27;20055;-61
2022/09/23 04:59:02;;;;;;;4.03;3.13;;;;;;;8.70;71.13;100371.72;5133343;28;20055;-61
2022/09/23 05:01:30;;;;;;;4.22;2.75;;;;;;;8.70;71.83;100380.06;5133114;28;20063;-61
2022/09/23 05:04:01;;;;;;;6.40;2.70;;;;;;;8.66;71.31;100379.84;5150533;27;20073;-61
2022/09/23 05:06:30;;;;;;;4.63;2.65;;;;;;;8.62;71.82;100372.41;5153273;27;20051;-61
2022/09/23 05:08:58;;;;;;;4.93;3.03;;;;;;;8.60;71.52;100372.72;5151917;27;20062;-58
2022/09/23 05:11:27;;;;;;;6.60;3.00;;;;;;;8.58;71.92;100371.38;5153534;27;20378;-61
2022/09/23 05:13:55;;;;;;;2.90;2.40;;;;;;;8.58;71.98;100365.81;5153791;27;20054;-61
2022/09/23 05:16:24;;;;;;;6.68;2.80;;;;;;;8.57;71.73;100367.78;5153806;27;20058;-61
2022/09/23 05:18:52;;;;;;;5.18;3.28;;;;;;;8.55;71.75;100378.38;5153516;27;20055;-61
2022/09/23 05:21:21;;;;;;;4.78;3.40;;;;;;;8.56;71.76;100368.06;5153580;27;20059;-61
2022/09/23 05:23:51;;;;;;;9.90;4.90;;;;;;;8.52;72.54;100368.69;5152461;27;20399;-61
2022/09/23 05:26:18;;;;;;;4.57;3.25;;;;;;;8.53;72.71;100364.78;5153782;27;20081;-61
2022/09/23 05:28:45;;;;;;;6.28;3.67;;;;;;;8.57;71.13;100375.25;5153657;27;20061;-61
2022/09/23 05:31:16;;;;;;;7.85;3.40;;;;;;;8.61;71.02;100365.19;5153362;27;20388;-61
2022/09/23 05:33:45;;;;;;;6.10;3.13;;;;;;;8.55;70.96;100367.25;5155807;27;20074;-60
2022/09/23 05:36:14;;;;;;;6.68;2.90;;;;;;;8.58;71.70;100374.16;5157445;27;20074;-61
2022/09/23 05:38:41;;;;;;;6.70;3.10;;;;;;;8.58;71.45;100380.53;5147277;27;20050;-60
2022/09/23 05:41:11;;;;;;;5.45;3.17;;;;;;;8.61;72.47;100384.63;5136676;27;20054;-60
2022/09/23 05:43:39;;;;;;;6.97;3.25;;;;;;;8.63;72.13;100385.16;5136435;27;20047;-60
2022/09/23 05:46:09;;;;;;;5.28;3.58;;;;;;;8.67;72.29;100380.66;5136396;27;20088;-61
2022/09/23 05:48:39;;;;;;;4.55;2.70;;;;;;;8.71;71.33;100382.53;5136495;27;20137;-61
2022/09/23 05:51:09;;;;;;;6.97;3.47;;;;;;;8.75;71.05;100382.72;5136266;27;20423;-61
2022/09/23 05:53:36;;;;;;;5.30;3.50;;;;;;;8.78;72.30;100387.69;5135816;27;20058;-61
2022/09/23 05:56:05;;;;;;;5.03;3.30;;;;;;;8.83;71.49;100393.16;5136392;27;20128;-61
2022/09/23 05:58:32;;;;;;;4.70;3.28;;;;;;;8.93;71.05;100394.94;5136272;27;20431;-61
2022/09/23 06:01:00;;;;;;;4.82;3.25;;;;;;;9.02;71.86;100395.84;5135927;27;20055;-61
2022/09/23 06:03:27;;;;;;;4.22;3.15;;;;;;;9.10;71.88;100392.38;5149181;27;20423;-60
2022/09/23 06:06:01;;;;;;;4.95;3.33;;;;;;;9.20;70.23;100383.03;5153565;27;20051;-60
2022/09/23 06:08:28;;;;;;;7.00;3.55;;;;;;;9.31;70.26;100384.47;5137610;27;20411;-61
2022/09/23 06:10:56;;;;;;;5.70;3.55;;;;;;;9.43;71.24;100383.13;5135811;27;20055;-61
2022/09/23 06:13:23;;;;;;;6.25;3.28;;;;;;;9.62;69.91;100383.84;5146776;27;20114;-61
2022/09/23 06:15:50;;;;;;;8.07;3.60;;;;;;;9.77;69.94;100385.50;5156594;27;20063;-61
2022/09/23 06:18:18;;;;;;;4.32;3.15;;;;;;;10.00;69.07;100383.59;5156096;27;20508;-61
2022/09/23 06:20:45;;;;;;;7.80;4.38;;;;;;;10.30;67.74;100376.50;5145357;27;20055;-60
2022/09/23 06:23:14;;;;;;;7.43;3.47;;;;;;;10.52;67.46;100366.50;5138846;27;20515;-59
2022/09/23 06:25:41;;;;;;;5.82;3.60;;;;;;;10.78;66.61;100375.06;5145529;27;20423;-60
2022/09/23 06:28:11;;;;;;;8.07;3.92;;;;;;;11.09;65.67;100374.25;5141576;27;20062;-60
2022/09/23 06:30:39;;;;;;;5.80;3.60;;;;;;;11.34;64.89;100373.53;5134019;27;20051;-61
2022/09/23 06:33:06;;;;;;;6.90;3.75;;;;;;;11.37;64.92;100374.84;5137607;27;20051;-61
2022/09/23 06:35:33;;;;;;;6.43;3.30;;;;;;;11.52;65.03;100376.38;5135687;27;20062;-61
2022/09/23 06:38:03;;;;;;;4.95;3.17;;;;;;;11.72;65.09;100366.63;5138401;27;20128;-61
2022/09/23 06:40:32;;;;;;;8.50;3.47;;;;;;;12.08;64.15;100366.38;5153486;27;20043;-61
2022/09/23 06:43:00;;;;;;;6.13;3.00;;;;;;;12.41;62.70;100371.47;5155652;27;20406;-60
2022/09/23 06:45:28;;;;;;;4.35;2.67;;;;;;;12.50;62.53;100365.88;5154375;27;20051;-60
2022/09/23 06:47:57;;;;;;;4.10;2.65;;;;;;;12.62;62.64;100363.22;5143484;27;20054;-61
2022/09/23 06:50:26;;;;;;;5.90;3.10;;;;;;;12.76;61.43;100357.44;5135670;27;20063;-61
2022/09/23 06:52:54;;;;;;;6.10;2.67;;;;;;;13.20;60.90;100367.34;5146116;27;20065;-61
2022/09/23 06:55:23;;;;;;;3.75;3.10;;;;;;;13.78;60.20;100370.56;5154024;27;20057;-61
2022/09/23 06:57:52;;;;;;;4.67;2.90;;;;;;;14.07;59.25;100371.69;5155432;27;20423;-61
2022/09/23 07:00:20;;;;;;;4.65;2.70;;;;;;;14.27;58.57;100369.22;5155862;27;20464;-61
2022/09/23 07:02:47;;;;;;;6.43;3.20;;;;;;;14.33;56.99;100373.47;5155365;27;20047;-61
2022/09/23 07:05:16;;;;;;;4.93;2.90;;;;;;;14.95;55.39;100366.97;5155493;27;20058;-61
2022/09/23 07:07:43;;;;;;;8.95;3.60;;;;;;;15.88;53.39;100374.09;5153635;27;20065;-61
2022/09/23 07:10:12;;;;;;;4.35;3.15;;;;;;;16.76;51.44;100368.66;5137342;27;20450;-61
2022/09/23 07:12:39;;;;;;;5.97;3.63;;;;;;;17.59;49.27;100361.22;5135081;27;20412;-61
2022/09/23 07:15:09;;;;;;;5.22;2.70;;;;;;;18.33;48.50;100376.63;5134599;27;20058;-60
2022/09/23 07:17:36;;;;;;;3.45;2.53;;;;;;;19.25;46.41;100369.19;5134727;27;20051;-61
2022/09/23 07:20:04;;;;;;;5.57;2.80;;;;;;;20.13;43.66;100360.94;5137551;27;20054;-60
2022/09/23 07:22:31;;;;;;;2.80;2.50;;;;;;;21.01;41.41;100354.75;5142733;27;20055;-60
2022/09/23 07:24:59;;;;;;;4.22;2.85;;;;;;;22.11;39.64;100358.91;5153171;27;20423;-60
2022/09/23 07:27:28;;;;;;;4.60;2.60;;;;;;;22.83;37.67;100356.44;5154247;27;20050;-60
2022/09/23 07:29:55;;;;;;;4.18;2.75;;;;;;;23.30;37.36;100358.16;5146483;27;20128;-60
2022/09/23 07:32:24;;;;;;;3.83;2.67;;;;;;;24.07;35.88;100348.41;5138220;27;20051;-60
2022/09/23 07:34:52;;;;;;;7.53;5.53;;;;;;;24.59;34.28;100359.22;5136779;27;20054;-60
2022/09/23 07:37:19;;;;;;;7.38;3.88;;;;;;;25.16;33.36;100356.09;5152985;27;20070;-60
2022/09/23 07:39:47;;;;;;;8.50;4.00;;;;;;;25.83;32.91;100356.78;5146624;27;20055;-60
2022/09/23 07:42:14;;;;;;;5.13;3.75;;;;;;;26.36;31.61;100356.69;5141147;27;20061;-61
2022/09/23 07:44:44;;;;;;;6.07;4.18;;;;;;;26.47;30.65;100351.63;5138201;27;20055;-62
2022/09/23 07:47:11;;;;;;;5.53;4.10;;;;;;;26.87;29.72;100354.81;5142205;27;20523;-60
2022/09/23 07:49:39;;;;;;;6.95;4.90;;;;;;;26.25;30.64;100354.75;5133748;27;20419;-61
2022/09/23 07:52:07;;;;;;;6.93;5.22;;;;;;;26.33;30.21;100350.59;5151486;27;20054;-61
2022/09/23 07:54:34;;;;;;;7.90;5.00;;;;;;;26.14;30.61;100339.78;5154038;27;20057;-60
2022/09/23 07:57:01;;;;;;;11.70;8.05;;;;;;;26.52;29.52;100343.41;5145673;27;20062;-61
2022/09/23 07:59:29;;;;;;;8.23;5.55;;;;;;;26.82;29.23;100341.03;5139902;27;20047;-61
2022/09/23 08:01:56;;;;;;;11.63;6.72;;;;;;;27.07;29.09;100346.38;5139925;27;20059;-61
2022/09/23 08:04:28;;;;;;;5.50;4.10;;;;;;;27.51;27.24;100351.00;5151974;27;20054;-61
2022/09/23 08:06:59;;;;;;;11.80;10.60;;;;;;;27.92;27.13;100349.91;5144623;27;20051;-64
2022/09/23 08:09:28;;;;;;;6.72;6.00;;;;;;;28.02;27.12;100350.16;5148573;27;20057;-64
2022/09/23 08:11:56;;;;;;;6.35;5.75;;;;;;;27.98;26.87;100358.81;5143078;27;20050;-64
2022/09/23 08:14:23;;;;;;;4.15;3.28;;;;;;;28.13;27.28;100350.75;5134617;27;20510;-64
2022/09/23 08:16:51;;;;;;;2.67;2.13;;;;;;;27.90;26.96;100349.53;5133254;27;20058;-64
2022/09/23 08:19:19;;;;;;;6.70;3.00;;;;;;;27.71;27.71;100348.19;5134064;27;20055;-64
2022/09/23 08:21:47;;;;;;;6.97;4.00;;;;;;;27.47;28.02;100344.53;5133616;27;20059;-64
2022/09/23 08:24:18;;;;;;;5.68;3.55;;;;;;;27.08;29.03;100345.91;5143843;27;20058;-64
2022/09/23 08:26:46;;;;;;;7.90;3.80;;;;;;;26.63;29.89;100334.72;5144908;27;20059;-64
2022/09/23 08:29:14;;;;;;;9.07;4.23;;;;;;;26.21;30.66;100338.91;5146567;27;20062;-64
2022/09/23 08:31:41;;;;;;;5.22;3.80;;;;;;;25.80;31.35;100346.22;5141488;27;20487;-64
2022/09/23 08:34:09;;;;;;;6.60;4.53;;;;;;;25.68;32.34;100330.44;5133141;27;20515;-64
2022/09/23 08:36:37;;;;;;;5.07;3.28;;;;;;;26.09;31.26;100345.97;5140707;27;20074;-64
2022/09/23 08:39:05;;;;;;;5.10;3.70;;;;;;;26.33;31.07;100336.31;5154247;27;20061;-64
2022/09/23 08:41:40;;;;;;;4.95;3.42;;;;;;;26.13;30.97;100332.47;5153923;27;20051;-64
2022/09/23 08:44:12;;;;;;;7.22;2.70;;;;;;;25.98;32.27;100337.50;5154067;27;20506;-64
2022/09/23 08:46:45;;;;;;;3.25;2.30;;;;;;;25.57;31.31;100337.47;5151722;27;20050;-64
2022/09/23 08:49:18;;;;;;;3.45;2.28;;;;;;;25.35;31.39;100340.50;5139228;27;20054;-64
2022/09/23 08:51:47;;;;;;;4.38;2.40;;;;;;;24.94;32.12;100338.28;5153991;27;20058;-64
2022/09/23 08:54:17;;;;;;;6.32;2.97;;;;;;;24.70;32.65;100329.50;5153876;27;20058;-63
2022/09/23 08:56:51;;;;;;;6.18;3.10;;;;;;;24.64;33.73;100345.38;5146667;27;20054;-63
2022/09/23 08:59:27;;;;;;;3.90;2.80;;;;;;;24.65;34.38;100335.63;5133429;28;20055;-63
2022/09/23 09:02:00;;;;;;;4.05;2.80;;;;;;;24.96;34.27;100335.84;5132711;27;20059;-63
2022/09/23 09:04:40;;;;;;;3.15;2.70;;;;;;;25.10;33.98;100337.81;5138069;27;20055;-64
2022/09/23 09:07:14;;;;;;;3.70;2.92;;;;;;;25.60;33.49;100319.50;5136225;27;20129;-63
2022/09/23 09:09:47;;;;;;;3.80;2.70;;;;;;;26.05;32.48;100325.19;5158040;27;20059;-63
2022/09/23 09:12:19;;;;;;;4.75;2.47;;;;;;;26.43;31.84;100316.59;5157708;27;20053;-63
2022/09/23 09:14:56;;;;;;;5.38;3.05;;;;;;;26.46;31.21;100321.47;5157699;27;20059;-64
2022/09/23 09:17:35;;;;;;;8.20;4.70;;;;;;;26.18;30.63;100316.91;5155640;27;20062;-64
2022/09/23 09:20:18;;;;;;;6.20;4.03;;;;;;;25.41;31.40;100318.03;5157676;27;20055;-64
2022/09/23 09:22:53;;;;;;;5.05;3.58;;;;;;;25.34;30.25;100326.66;5157676;27;20106;-63
2022/09/23 09:25:33;;;;;;;3.03;1.85;;;;;;;24.48;32.15;100317.38;5157652;27;20051;-63
2022/09/23 09:28:03;;;;;;;;;;;;;;;24.65;30.92;100317.72;5158063;27;20436;-63
2022/09/23 09:30:32;;;;;;;5.80;2.10;;;;;;;24.82;30.91;100310.28;5153818;27;19918;-63
2022/09/23 09:33:02;;;;;;;3.03;1.80;;;;;;;24.60;30.87;100306.75;5152537;27;20054;-63
2022/09/23 09:35:36;;;;;;;3.78;2.10;;;;;;;24.46;31.33;100319.81;5157436;27;20058;-63
2022/09/23 09:38:04;;;;;;;4.10;2.17;;;;;;;24.12;31.76;100311.00;5157278;27;20058;-63
2022/09/23 09:40:33;;;;;;;2.90;1.83;;;;;;;23.73;32.96;100305.34;5157455;27;20054;-63
2022/09/23 09:43:03;;;;;;;6.28;3.05;;;;;;;23.99;32.51;100312.66;5157515;27;20061;-63
2022/09/23 09:49:23;;;;;;;3.17;1.98;;;;;;;23.51;32.72;100328.13;5073217;28;20401;-64
2022/09/23 09:52:28;;;;;;;2.25;1.70;;;;;;;23.19;32.21;100317.56;5091044;27;20059;-64
2022/09/23 10:00:59;;;;;;;;;;;;;;;;;;;;;
2022/09/23 10:03:40;;;;;;;2.17;1.50;;;;;;;22.62;33.99;100311.75;5112382;28;20424;-63
2022/09/23 10:12:56;;;;;;;3.42;2.20;;;;;;;22.63;34.40;100304.84;5033351;28;20383;-63
2022/09/23 10:15:47;;;;;;;2.85;1.50;;;;;;;22.47;34.93;100293.88;5040287;27;20049;-62
2022/09/23 10:18:21;;;;;;;3.20;1.67;;;;;;;22.55;34.30;100306.84;5118966;27;20058;-66
2022/09/23 10:21:00;;;;;;;3.42;1.55;;;;;;;22.43;35.24;100304.41;5134952;27;20445;-63
2022/09/23 10:23:40;;;;;;;3.17;1.50;;;;;;;22.12;35.85;100300.19;5133026;27;20047;-63
2022/09/23 10:26:31;;;;;;;3.15;1.67;;;;;;;22.43;35.97;100296.69;5135581;27;20047;-63
2022/09/23 10:29:24;;;;;;;3.50;1.63;;;;;;;22.62;35.63;100306.09;5135473;27;20414;-64
2022/09/23 10:32:21;;;;;;;2.60;1.52;;;;;;;22.75;34.12;100295.97;5130630;27;20047;-61
2022/09/23 10:35:03;;;;;;;2.78;1.50;;;;;;;22.69;34.14;100289.88;5114971;28;20056;-63
2022/09/23 10:46:46;;;;;;;2.25;1.75;;;;;;;23.43;32.63;100287.50;5114350;28;20036;-63
2022/09/23 10:49:51;;;;;;;3.70;1.60;;;;;;;23.65;33.09;100284.66;5122974;27;20059;-63
2022/09/23 10:55:53;;;;;;;3.58;1.70;;;;;;;24.10;32.41;100270.75;5135852;27;20062;-63
2022/09/23 11:02:42;;;;;;;3.10;1.48;;;;;;;24.73;30.41;100275.75;5120948;27;20061;-64
2022/09/23 11:05:44;;;;;;;2.05;1.60;;;;;;;25.13;30.47;100279.94;5135393;27;20055;-63
2022/09/23 11:08:58;;;;;;;2.40;1.30;;;;;;;25.01;30.77;100267.03;5071657;28;20061;-63
2022/09/23 11:15:32;;;;;;;3.63;2.20;;;;;;;25.66;29.45;100272.16;5017510;28;20071;-64
2022/09/23 11:18:31;;;;;;;4.10;1.67;;;;;;;26.05;27.78;100262.41;5042034;28;20404;-63
2022/09/23 11:21:13;;;;;;;3.05;1.45;;;;;;;26.76;28.50;100254.94;5079152;28;20055;-63
2022/09/23 11:27:34;;;;;;;;;;;;;;;;;;;;;
2022/09/23 11:30:10;;;;;;;2.33;1.55;;;;;;;26.87;27.88;100243.34;5128725;27;20063;-63
2022/09/23 11:33:21;;;;;;;3.05;1.33;;;;;;;27.21;27.56;100250.97;5134894;27;20069;-63
2022/09/23 11:36:10;;;;;;;3.95;1.50;;;;;;;27.36;27.05;100243.78;5134349;27;20062;-63
2022/09/23 11:38:45;;;;;;;2.28;1.35;;;;;;;27.00;27.28;100235.78;5135927;27;20057;-63
2022/09/23 11:41:20;;;;;;;3.20;1.40;;;;;;;27.20;26.86;100237.91;5129653;27;20492;-62
2022/09/23 11:46:48;;;;;;;2.40;1.33;;;;;;;28.04;25.89;100227.41;5051548;28;20064;-64
2022/09/23 11:49:33;;;;;;;;;;;;;;;28.29;24.98;100229.72;5059177;28;20650;-64
2022/09/23 11:52:09;;;;;;;2.53;1.50;;;;;;;28.59;25.13;100222.94;5070908;28;19927;-64
2022/09/23 11:54:57;;;;;;;2.13;1.40;;;;;;;29.31;23.81;100216.25;5070608;28;20056;-64
2022/09/23 11:57:32;;;;;;;4.15;1.30;;;;;;;30.46;22.69;100218.75;5067986;28;20460;-64
2022/09/23 12:00:04;;;;;;;1.73;1.20;;;;;;;30.00;22.51;100214.41;5071074;28;20052;-64
2022/09/23 12:02:54;;;;;;;1.55;1.40;;;;;;;31.38;22.64;100219.06;5130678;27;20051;-59
2022/09/23 12:05:26;;;;;;;3.03;1.50;;;;;;;32.48;19.91;100209.66;5133764;27;20047;-59
2022/09/23 12:08:05;;;;;;;2.17;1.30;;;;;;;31.99;20.24;100216.09;5133765;27;20055;-59
2022/09/23 12:13:46;;;;;;;2.40;1.30;;;;;;;33.24;20.11;100201.63;5102081;28;20066;-59
2022/09/23 12:16:43;;;;;;;1.92;1.40;;;;;;;33.51;18.70;100203.75;5113317;28;20051;-59
2022/09/23 12:22:33;;;;;;;2.13;1.27;;;;;;;33.84;18.35;100192.38;5111795;28;20056;-59
2022/09/23 12:25:22;;;;;;;1.85;1.48;;;;;;;33.96;18.11;100196.38;5111794;28;20508;-62
2022/09/23 12:27:54;;;;;;;1.65;1.23;;;;;;;34.07;18.60;100187.19;5123973;27;20047;-63
2022/09/23 12:36:07;;;;;;;2.50;1.33;;;;;;;31.86;20.16;100196.78;5123019;27;20062;-63
2022/09/23 12:39:03;;;;;;;2.20;1.20;;;;;;;30.80;20.72;100190.59;5133286;27;20055;-64
2022/09/23 12:44:42;;;;;;;1.70;1.20;;;;;;;29.33;21.71;100178.50;5050745;28;20444;-63
2022/09/23 12:47:45;;;;;;;2.15;1.23;;;;;;;29.31;22.11;100178.94;5130045;28;20055;-63
2022/09/23 12:50:47;;;;;;;2.38;1.15;;;;;;;28.82;22.17;100172.44;5133194;28;20063;-64
2022/09/23 12:53:54;;;;;;;2.33;1.20;;;;;;;28.17;23.65;100178.84;5133028;28;20055;-63
2022/09/23 12:56:25;;;;;;;2.53;1.10;;;;;;;27.42;24.07;100181.16;5121538;27;20055;-63
2022/09/23 12:59:15;;;;;;;2.25;1.13;;;;;;;26.49;25.46;100184.28;5132982;27;20423;-63
2022/09/23 13:01:49;;;;;;;2.40;1.35;;;;;;;25.98;26.80;100183.38;5133276;27;20062;-63
2022/09/23 13:07:51;;;;;;;2.03;1.23;;;;;;;25.29;26.46;100176.81;5136505;27;20589;-64
2022/09/23 13:13:40;;;;;;;2.28;1.50;;;;;;;24.90;27.09;100178.78;5068360;28;20396;-63
2022/09/23 13:16:37;;;;;;;1.70;1.13;;;;;;;24.91;26.54;100165.34;5113007;28;20055;-64
2022/09/23 13:19:45;;;;;;;2.95;1.60;;;;;;;24.55;27.60;100154.25;5113944;27;20055;-63
2022/09/23 13:22:41;;;;;;;2.35;1.60;;;;;;;24.79;28.31;100157.31;5112924;28;20415;-64
2022/09/23 13:25:28;;;;;;;2.47;1.52;;;;;;;24.75;28.30;100159.38;5112204;28;20051;-64
2022/09/23 13:34:03;;;;;;;3.78;1.40;;;;;;;24.52;28.32;100157.91;5110598;28;20075;-64
2022/09/23 13:36:59;;;;;;;2.85;1.77;;;;;;;24.51;28.79;100159.16;5112485;28;20516;-63
2022/09/23 13:39:29;;;;;;;2.30;1.27;;;;;;;24.34;29.29;100151.50;5116952;28;20058;-64
2022/09/23 13:42:21;;;;;;;4.25;1.70;;;;;;;24.05;29.27;100166.72;5128258;27;20051;-64
2022/09/23 13:44:54;;;;;;;4.20;1.60;;;;;;;23.84;30.10;100152.59;5133172;27;20059;-64
2022/09/23 13:47:37;;;;;;;2.90;1.20;;;;;;;23.40;30.29;100145.41;5132806;27;20055;-64
2022/09/23 13:50:17;;;;;;;2.40;1.38;;;;;;;23.37;30.41;100147.06;5132714;27;20523;-62
2022/09/23 13:53:01;;;;;;;2.47;1.10;;;;;;;23.21;30.27;100149.53;5133102;27;20500;-62
2022/09/23 13:55:31;;;;;;;2.05;1.40;;;;;;;22.99;31.20;100143.81;5134251;27;20059;-62
2022/09/23 13:58:23;;;;;;;;;;;;;;;;;;;;;
2022/09/23 14:00:51;;;;;;;3.80;1.45;;;;;;;22.54;31.44;100162.50;5135168;27;20055;-63
2022/09/23 14:03:25;;;;;;;2.55;1.40;;;;;;;22.34;31.44;100153.53;5136245;27;20070;-62
2022/09/23 14:05:56;;;;;;;2.80;1.50;;;;;;;22.15;32.50;100149.81;5136487;27;20062;-59
2022/09/23 14:08:26;;;;;;;2.22;1.15;;;;;;;22.08;32.38;100146.97;5136088;27;20051;-59
2022/09/23 14:10:58;;;;;;;3.28;1.67;;;;;;;21.97;32.07;100151.81;5135874;27;20155;-59
2022/09/23 14:13:32;;;;;;;3.60;1.38;;;;;;;22.10;32.87;100150.22;5134620;27;20066;-59
2022/09/23 14:16:05;;;;;;;2.63;1.30;;;;;;;22.09;32.59;100148.63;5136231;27;20051;-59
2022/09/23 14:18:48;;;;;;;2.10;1.10;;;;;;;22.06;32.18;100143.72;5134165;27;20407;-60
2022/09/23 14:21:33;;;;;;;4.00;1.50;;;;;;;22.07;32.74;100145.38;5134771;27;20062;-59
2022/09/23 14:24:14;;;;;;;2.05;1.33;;;;;;;21.84;32.57;100155.00;5136010;27;20051;-60
2022/09/23 14:26:50;;;;;;;2.65;1.23;;;;;;;21.72;32.73;100146.06;5135643;27;20063;-63
2022/09/23 14:29:20;;;;;;;4.72;1.40;;;;;;;21.50;32.99;100145.94;5132290;27;20059;-62
2022/09/23 14:32:11;;;;;;;3.05;1.23;;;;;;;21.35;33.42;100145.00;5135272;27;20388;-62
2022/09/23 14:40:21;;;;;;;2.45;1.13;;;;;;;21.44;32.88;100142.69;5092956;28;20126;-63
2022/09/23 14:43:02;;;;;;;3.85;1.55;;;;;;;21.35;33.36;100144.22;5116697;27;20047;-64